KLEX Airport Diagram

We have created a template for each of the higher traffic airports in the vZID airspace. They include KCMH, KCRW, KCVG, KDAY, KIND, KLEX and KSDF. You wil find usefull information including the airport diagram, weather, and specific airport procedures.

KLEX Weather

[Source: ADDS]
METAR
KLEX 230454Z 00000KT 10SM CLR 23/20 A3000 RMK AO2 SLP147 T02330200 403220222 =
KLEX 230531Z 2306/2406 VRB04KT P6SM VCSH BKN060 BKN120 FM231100 02004KT 6SM BR VCSH OVC014 TEMPO 2313/2316 6SM -SHRA BR BKN009 FM231700 04009KT P6SM SCT016 OVC025 FM231900 04010KT P6SM SCT025 BKN035 FM240200 03009KT P6SM SKC
TAF
KLEX 230531Z 2306/2406 VRB04KT P6SM VCSH BKN060 BKN120 FM231100 02004KT 6SM BR VCSH OVC014 TEMPO 2313/2316 6SM -SHRA BR BKN009 FM231700 04009KT P6SM SCT016 OVC025 FM231900 04010KT P6SM SCT025 BKN035 FM240200 03009KT P6SM SKC =

KLEX Operations

Calm wind runway at KLEX is Runway 22, up to and including 10kts.

Default scenery shows Runway 8/26, which crosses Runway 22. When taxiing to Runway 22, clearance to cross Runway 26 not required.

Updated scenery available at www.flightsim.com.

 

JSN Epic template designed by JoomlaShine.com